sensor_id;sensor_type;location;lat;lon;timestamp;temperature;humidity
12321;DHT22;6225;52.720;8.276;2023-08-06T00:02:16;15.00;99.90
12321;DHT22;6225;52.720;8.276;2023-08-06T00:05:01;15.00;99.90
12321;DHT22;6225;52.720;8.276;2023-08-06T00:07:45;15.00;99.90
12321;DHT22;6225;52.720;8.276;2023-08-06T00:10:29;15.00;99.90
12321;DHT22;6225;52.720;8.276;2023-08-06T00:13:14;14.90;99.90
12321;DHT22;6225;52.720;8.276;2023-08-06T00:16:13;14.90;99.90
12321;DHT22;6225;52.720;8.276;2023-08-06T00:18:58;14.90;99.90
12321;DHT22;6225;52.720;8.276;2023-08-06T00:21:42;14.90;99.90
12321;DHT22;6225;52.720;8.276;2023-08-06T00:24:26;14.90;99.90
12321;DHT22;6225;52.720;8.276;2023-08-06T00:27:10;14.90;99.90
12321;DHT22;6225;52.720;8.276;2023-08-06T00:29:55;15.30;99.90
12321;DHT22;6225;52.720;8.276;2023-08-06T00:32:40;15.00;99.90
12321;DHT22;6225;52.720;8.276;2023-08-06T00:35:24;15.00;99.90
12321;DHT22;6225;52.720;8.276;2023-08-06T00:38:08;15.00;99.90
12321;DHT22;6225;52.720;8.276;2023-08-06T00:40:52;15.00;99.90
12321;DHT22;6225;52.720;8.276;2023-08-06T00:43:37;14.90;99.90
12321;DHT22;6225;52.720;8.276;2023-08-06T00:46:21;14.90;99.90
12321;DHT22;6225;52.720;8.276;2023-08-06T00:49:09;14.90;99.90
12321;DHT22;6225;52.720;8.276;2023-08-06T00:51:56;14.90;99.90
12321;DHT22;6225;52.720;8.276;2023-08-06T00:54:41;14.90;99.90
12321;DHT22;6225;52.720;8.276;2023-08-06T00:57:25;14.90;99.90
12321;DHT22;6225;52.720;8.276;2023-08-06T01:00:10;14.90;99.90
12321;DHT22;6225;52.720;8.276;2023-08-06T01:02:55;14.90;99.90
12321;DHT22;6225;52.720;8.276;2023-08-06T01:05:40;14.90;99.90
12321;DHT22;6225;52.720;8.276;2023-08-06T01:08:40;14.90;99.90
12321;DHT22;6225;52.720;8.276;2023-08-06T01:11:33;14.90;99.90
12321;DHT22;6225;52.720;8.276;2023-08-06T01:14:37;14.80;99.90
12321;DHT22;6225;52.720;8.276;2023-08-06T01:17:26;14.80;99.90
12321;DHT22;6225;52.720;8.276;2023-08-06T01:20:11;14.80;99.90
12321;DHT22;6225;52.720;8.276;2023-08-06T01:22:55;14.80;99.90
12321;DHT22;6225;52.720;8.276;2023-08-06T01:25:50;14.80;99.90
12321;DHT22;6225;52.720;8.276;2023-08-06T01:31:26;14.70;99.90
12321;DHT22;6225;52.720;8.276;2023-08-06T01:34:21;14.70;99.90
12321;DHT22;6225;52.720;8.276;2023-08-06T01:37:05;14.70;99.90
12321;DHT22;6225;52.720;8.276;2023-08-06T01:39:50;14.70;99.90
12321;DHT22;6225;52.720;8.276;2023-08-06T01:42:34;14.70;99.90
12321;DHT22;6225;52.720;8.276;2023-08-06T01:45:18;14.80;99.90
12321;DHT22;6225;52.720;8.276;2023-08-06T01:48:03;14.80;99.90
12321;DHT22;6225;52.720;8.276;2023-08-06T01:50:50;14.80;99.90
12321;DHT22;6225;52.720;8.276;2023-08-06T01:53:35;14.80;99.90
12321;DHT22;6225;52.720;8.276;2023-08-06T01:56:19;14.80;99.90
12321;DHT22;6225;52.720;8.276;2023-08-06T01:59:03;14.80;99.90
12321;DHT22;6225;52.720;8.276;2023-08-06T02:01:48;14.80;99.90
12321;DHT22;6225;52.720;8.276;2023-08-06T02:04:33;14.70;99.90
12321;DHT22;6225;52.720;8.276;2023-08-06T02:07:17;14.80;99.90
12321;DHT22;6225;52.720;8.276;2023-08-06T02:10:01;14.70;99.90
12321;DHT22;6225;52.720;8.276;2023-08-06T02:12:45;14.80;99.90
12321;DHT22;6225;52.720;8.276;2023-08-06T02:15:29;14.80;99.90
12321;DHT22;6225;52.720;8.276;2023-08-06T02:18:14;14.80;99.90
12321;DHT22;6225;52.720;8.276;2023-08-06T02:21:00;14.80;99.90
12321;DHT22;6225;52.720;8.276;2023-08-06T02:23:44;14.80;99.90
12321;DHT22;6225;52.720;8.276;2023-08-06T02:26:28;14.80;99.90
12321;DHT22;6225;52.720;8.276;2023-08-06T02:29:12;14.80;99.90
12321;DHT22;6225;52.720;8.276;2023-08-06T02:31:56;14.80;99.90
12321;DHT22;6225;52.720;8.276;2023-08-06T02:34:41;14.90;99.90
12321;DHT22;6225;52.720;8.276;2023-08-06T02:37:28;14.80;99.90
12321;DHT22;6225;52.720;8.276;2023-08-06T02:40:12;14.80;99.90
12321;DHT22;6225;52.720;8.276;2023-08-06T02:42:59;14.80;99.90
12321;DHT22;6225;52.720;8.276;2023-08-06T02:45:43;14.80;99.90
12321;DHT22;6225;52.720;8.276;2023-08-06T02:48:28;14.80;99.90
12321;DHT22;6225;52.720;8.276;2023-08-06T02:51:12;14.80;99.90
12321;DHT22;6225;52.720;8.276;2023-08-06T02:53:59;14.80;99.90
12321;DHT22;6225;52.720;8.276;2023-08-06T02:56:44;13.70;99.90
12321;DHT22;6225;52.720;8.276;2023-08-06T02:59:28;14.80;99.90
12321;DHT22;6225;52.720;8.276;2023-08-06T03:02:12;14.80;99.90
12321;DHT22;6225;52.720;8.276;2023-08-06T03:04:57;14.60;99.90
12321;DHT22;6225;52.720;8.276;2023-08-06T03:07:41;17.00;99.90
12321;DHT22;6225;52.720;8.276;2023-08-06T03:10:25;14.80;99.90
12321;DHT22;6225;52.720;8.276;2023-08-06T03:13:10;14.80;99.90
12321;DHT22;6225;52.720;8.276;2023-08-06T03:15:56;14.80;99.90
12321;DHT22;6225;52.720;8.276;2023-08-06T03:18:40;14.80;99.90
12321;DHT22;6225;52.720;8.276;2023-08-06T03:21:25;14.80;99.90
12321;DHT22;6225;52.720;8.276;2023-08-06T03:24:09;14.80;99.90
12321;DHT22;6225;52.720;8.276;2023-08-06T03:26:53;14.80;99.90
12321;DHT22;6225;52.720;8.276;2023-08-06T03:29:38;14.80;99.90
12321;DHT22;6225;52.720;8.276;2023-08-06T03:32:23;14.80;99.90
12321;DHT22;6225;52.720;8.276;2023-08-06T03:35:07;14.80;99.90
12321;DHT22;6225;52.720;8.276;2023-08-06T03:37:51;14.80;99.90
12321;DHT22;6225;52.720;8.276;2023-08-06T03:40:36;14.80;99.90
12321;DHT22;6225;52.720;8.276;2023-08-06T03:43:21;14.80;99.90
12321;DHT22;6225;52.720;8.276;2023-08-06T03:46:05;14.70;99.90
12321;DHT22;6225;52.720;8.276;2023-08-06T03:48:50;14.70;99.90
12321;DHT22;6225;52.720;8.276;2023-08-06T03:51:34;14.70;99.90
12321;DHT22;6225;52.720;8.276;2023-08-06T03:54:18;14.60;99.90
12321;DHT22;6225;52.720;8.276;2023-08-06T03:57:02;14.70;99.90
12321;DHT22;6225;52.720;8.276;2023-08-06T03:59:47;14.70;99.90
12321;DHT22;6225;52.720;8.276;2023-08-06T04:02:31;14.70;99.90
12321;DHT22;6225;52.720;8.276;2023-08-06T04:05:16;14.60;99.90
12321;DHT22;6225;52.720;8.276;2023-08-06T04:08:01;14.60;99.90
12321;DHT22;6225;52.720;8.276;2023-08-06T04:10:45;14.50;99.90
12321;DHT22;6225;52.720;8.276;2023-08-06T04:13:29;14.50;99.90
12321;DHT22;6225;52.720;8.276;2023-08-06T04:16:14;14.50;99.90
12321;DHT22;6225;52.720;8.276;2023-08-06T04:18:59;14.50;99.90
12321;DHT22;6225;52.720;8.276;2023-08-06T04:21:43;14.50;99.90
12321;DHT22;6225;52.720;8.276;2023-08-06T04:24:27;14.50;99.90
12321;DHT22;6225;52.720;8.276;2023-08-06T04:27:13;14.50;99.90
12321;DHT22;6225;52.720;8.276;2023-08-06T04:29:58;14.50;99.90
12321;DHT22;6225;52.720;8.276;2023-08-06T04:32:45;14.40;99.90
12321;DHT22;6225;52.720;8.276;2023-08-06T04:35:30;14.50;99.90
12321;DHT22;6225;52.720;8.276;2023-08-06T04:38:14;14.50;99.90
12321;DHT22;6225;52.720;8.276;2023-08-06T04:41:02;14.50;99.90
12321;DHT22;6225;52.720;8.276;2023-08-06T04:43:47;14.50;99.90
12321;DHT22;6225;52.720;8.276;2023-08-06T04:46:32;14.40;99.90
12321;DHT22;6225;52.720;8.276;2023-08-06T04:49:17;14.40;99.90
12321;DHT22;6225;52.720;8.276;2023-08-06T04:52:05;14.40;99.90
12321;DHT22;6225;52.720;8.276;2023-08-06T04:54:50;14.40;99.90
12321;DHT22;6225;52.720;8.276;2023-08-06T04:57:37;14.30;99.90
12321;DHT22;6225;52.720;8.276;2023-08-06T05:00:21;14.40;99.90
12321;DHT22;6225;52.720;8.276;2023-08-06T05:03:06;14.40;99.90
12321;DHT22;6225;52.720;8.276;2023-08-06T05:05:51;14.30;99.90
12321;DHT22;6225;52.720;8.276;2023-08-06T05:08:39;14.30;99.90
12321;DHT22;6225;52.720;8.276;2023-08-06T05:11:24;14.40;99.90
12321;DHT22;6225;52.720;8.276;2023-08-06T05:14:11;14.40;99.90
12321;DHT22;6225;52.720;8.276;2023-08-06T05:16:56;14.40;99.90
12321;DHT22;6225;52.720;8.276;2023-08-06T05:19:40;14.40;99.90
12321;DHT22;6225;52.720;8.276;2023-08-06T05:22:25;14.40;99.90
12321;DHT22;6225;52.720;8.276;2023-08-06T05:25:11;14.40;99.90
12321;DHT22;6225;52.720;8.276;2023-08-06T05:27:55;14.40;99.90
12321;DHT22;6225;52.720;8.276;2023-08-06T05:30:40;14.40;99.90
12321;DHT22;6225;52.720;8.276;2023-08-06T05:33:24;14.50;99.90
12321;DHT22;6225;52.720;8.276;2023-08-06T05:36:09;14.50;99.90
12321;DHT22;6225;52.720;8.276;2023-08-06T05:38:53;14.50;99.90
12321;DHT22;6225;52.720;8.276;2023-08-06T05:41:37;14.50;99.90
12321;DHT22;6225;52.720;8.276;2023-08-06T05:44:23;14.40;99.90
12321;DHT22;6225;52.720;8.276;2023-08-06T05:47:07;14.50;99.90
12321;DHT22;6225;52.720;8.276;2023-08-06T05:49:51;14.40;99.90
12321;DHT22;6225;52.720;8.276;2023-08-06T05:52:35;15.30;99.90
12321;DHT22;6225;52.720;8.276;2023-08-06T05:55:20;14.50;99.90
12321;DHT22;6225;52.720;8.276;2023-08-06T05:58:04;14.50;99.90
12321;DHT22;6225;52.720;8.276;2023-08-06T06:00:48;14.60;99.90
12321;DHT22;6225;52.720;8.276;2023-08-06T06:03:32;14.60;99.90
12321;DHT22;6225;52.720;8.276;2023-08-06T06:06:17;14.60;99.90
12321;DHT22;6225;52.720;8.276;2023-08-06T06:09:02;14.60;99.90
12321;DHT22;6225;52.720;8.276;2023-08-06T06:11:46;14.60;99.90
12321;DHT22;6225;52.720;8.276;2023-08-06T06:14:33;14.60;99.90
12321;DHT22;6225;52.720;8.276;2023-08-06T06:17:17;14.60;99.90
12321;DHT22;6225;52.720;8.276;2023-08-06T06:20:01;14.80;99.90
12321;DHT22;6225;52.720;8.276;2023-08-06T06:22:47;14.70;99.90
12321;DHT22;6225;52.720;8.276;2023-08-06T06:25:31;16.20;99.90
12321;DHT22;6225;52.720;8.276;2023-08-06T06:28:15;14.70;99.90
12321;DHT22;6225;52.720;8.276;2023-08-06T06:31:00;14.70;99.90
12321;DHT22;6225;52.720;8.276;2023-08-06T06:33:45;14.70;99.90
12321;DHT22;6225;52.720;8.276;2023-08-06T06:36:29;14.80;99.90
12321;DHT22;6225;52.720;8.276;2023-08-06T06:39:13;14.80;99.90
12321;DHT22;6225;52.720;8.276;2023-08-06T06:41:57;14.80;99.90
12321;DHT22;6225;52.720;8.276;2023-08-06T06:44:41;14.90;99.90
12321;DHT22;6225;52.720;8.276;2023-08-06T06:47:25;14.90;99.90
12321;DHT22;6225;52.720;8.276;2023-08-06T06:50:10;14.90;99.90
12321;DHT22;6225;52.720;8.276;2023-08-06T06:52:54;14.50;99.90
12321;DHT22;6225;52.720;8.276;2023-08-06T07:01:08;12.70;99.90
12321;DHT22;6225;52.720;8.276;2023-08-06T07:03:53;14.40;99.90
12321;DHT22;6225;52.720;8.276;2023-08-06T07:06:37;15.30;99.90
12321;DHT22;6225;52.720;8.276;2023-08-06T07:09:22;15.30;99.90
12321;DHT22;6225;52.720;8.276;2023-08-06T07:14:50;15.70;99.90
12321;DHT22;6225;52.720;8.276;2023-08-06T07:17:35;15.60;99.90
12321;DHT22;6225;52.720;8.276;2023-08-06T07:20:18;15.60;99.90
12321;DHT22;6225;52.720;8.276;2023-08-06T07:23:03;15.70;99.90
12321;DHT22;6225;52.720;8.276;2023-08-06T07:25:47;15.80;99.90
12321;DHT22;6225;52.720;8.276;2023-08-06T07:28:31;15.90;99.90
12321;DHT22;6225;52.720;8.276;2023-08-06T07:31:15;15.90;99.90
12321;DHT22;6225;52.720;8.276;2023-08-06T07:34:00;16.00;99.90
12321;DHT22;6225;52.720;8.276;2023-08-06T07:36:45;16.00;99.90
12321;DHT22;6225;52.720;8.276;2023-08-06T07:39:29;16.10;99.90
12321;DHT22;6225;52.720;8.276;2023-08-06T07:42:13;16.50;99.90
12321;DHT22;6225;52.720;8.276;2023-08-06T07:44:58;16.30;99.90
12321;DHT22;6225;52.720;8.276;2023-08-06T07:47:43;16.40;99.90
12321;DHT22;6225;52.720;8.276;2023-08-06T07:50:27;16.50;99.90
12321;DHT22;6225;52.720;8.276;2023-08-06T07:53:11;16.50;99.90
12321;DHT22;6225;52.720;8.276;2023-08-06T09:07:38;18.50;99.90
12321;DHT22;6225;52.720;8.276;2023-08-06T09:24:13;18.60;99.90
12321;DHT22;6225;52.720;8.276;2023-08-06T09:27:02;18.50;99.90
12321;DHT22;6225;52.720;8.276;2023-08-06T09:29:47;18.50;99.90
12321;DHT22;6225;52.720;8.276;2023-08-06T09:32:45;20.30;99.90
12321;DHT22;6225;52.720;8.276;2023-08-06T09:35:31;14.70;99.90
12321;DHT22;6225;52.720;8.276;2023-08-06T09:38:15;18.60;99.90
12321;DHT22;6225;52.720;8.276;2023-08-06T09:40:59;17.80;99.90
12321;DHT22;6225;52.720;8.276;2023-08-06T09:43:43;21.10;99.90
12321;DHT22;6225;52.720;8.276;2023-08-06T09:46:28;19.60;99.90
12321;DHT22;6225;52.720;8.276;2023-08-06T09:49:15;18.80;99.90
12321;DHT22;6225;52.720;8.276;2023-08-06T09:51:59;18.80;99.90
12321;DHT22;6225;52.720;8.276;2023-08-06T09:54:44;18.90;99.90
12321;DHT22;6225;52.720;8.276;2023-08-06T09:57:29;18.90;99.90
12321;DHT22;6225;52.720;8.276;2023-08-06T10:00:13;18.90;99.90
12321;DHT22;6225;52.720;8.276;2023-08-06T10:03:01;19.10;99.90
12321;DHT22;6225;52.720;8.276;2023-08-06T10:08:32;19.00;99.90
12321;DHT22;6225;52.720;8.276;2023-08-06T10:11:20;19.20;99.90
12321;DHT22;6225;52.720;8.276;2023-08-06T10:14:14;19.20;99.90
12321;DHT22;6225;52.720;8.276;2023-08-06T10:16:59;19.20;99.90
12321;DHT22;6225;52.720;8.276;2023-08-06T10:19:44;18.90;99.90
12321;DHT22;6225;52.720;8.276;2023-08-06T10:22:32;19.10;99.90
12321;DHT22;6225;52.720;8.276;2023-08-06T10:31:02;19.20;99.90
12321;DHT22;6225;52.720;8.276;2023-08-06T10:36:36;18.90;99.90
12321;DHT22;6225;52.720;8.276;2023-08-06T10:42:22;19.50;99.90
12321;DHT22;6225;52.720;8.276;2023-08-06T10:48:02;19.60;99.90
12321;DHT22;6225;52.720;8.276;2023-08-06T10:50:47;19.60;99.90
12321;DHT22;6225;52.720;8.276;2023-08-06T10:53:34;19.90;99.90
12321;DHT22;6225;52.720;8.276;2023-08-06T10:56:21;19.90;99.90
12321;DHT22;6225;52.720;8.276;2023-08-06T10:59:09;20.00;99.90
12321;DHT22;6225;52.720;8.276;2023-08-06T11:01:54;20.00;99.90
12321;DHT22;6225;52.720;8.276;2023-08-06T11:04:38;20.00;99.90
12321;DHT22;6225;52.720;8.276;2023-08-06T11:18:44;20.00;99.90
12321;DHT22;6225;52.720;8.276;2023-08-06T11:21:28;19.90;99.90
12321;DHT22;6225;52.720;8.276;2023-08-06T11:24:13;20.10;99.90
12321;DHT22;6225;52.720;8.276;2023-08-06T11:26:57;18.10;99.90
12321;DHT22;6225;52.720;8.276;2023-08-06T11:29:42;20.00;99.90
12321;DHT22;6225;52.720;8.276;2023-08-06T11:32:26;20.00;99.90
12321;DHT22;6225;52.720;8.276;2023-08-06T11:35:12;20.10;99.90
12321;DHT22;6225;52.720;8.276;2023-08-06T11:37:58;20.10;99.90
12321;DHT22;6225;52.720;8.276;2023-08-06T11:40:45;20.10;99.90
12321;DHT22;6225;52.720;8.276;2023-08-06T11:43:30;20.10;99.90
12321;DHT22;6225;52.720;8.276;2023-08-06T11:46:15;20.10;99.90
12321;DHT22;6225;52.720;8.276;2023-08-06T11:48:59;20.10;99.90
12321;DHT22;6225;52.720;8.276;2023-08-06T11:51:45;20.10;99.90
12321;DHT22;6225;52.720;8.276;2023-08-06T11:54:32;20.00;99.90
12321;DHT22;6225;52.720;8.276;2023-08-06T11:57:20;20.00;99.90
12321;DHT22;6225;52.720;8.276;2023-08-06T12:00:09;20.00;99.90
12321;DHT22;6225;52.720;8.276;2023-08-06T12:02:56;21.50;99.90
12321;DHT22;6225;52.720;8.276;2023-08-06T12:05:40;20.00;99.90
12321;DHT22;6225;52.720;8.276;2023-08-06T12:08:28;19.90;99.90
12321;DHT22;6225;52.720;8.276;2023-08-06T12:11:12;19.90;99.90
12321;DHT22;6225;52.720;8.276;2023-08-06T12:13:56;20.40;99.90
12321;DHT22;6225;52.720;8.276;2023-08-06T12:16:41;20.90;99.90
12321;DHT22;6225;52.720;8.276;2023-08-06T12:19:25;20.00;99.90
12321;DHT22;6225;52.720;8.276;2023-08-06T12:22:10;20.10;99.90
12321;DHT22;6225;52.720;8.276;2023-08-06T12:24:54;20.00;99.90
12321;DHT22;6225;52.720;8.276;2023-08-06T12:27:39;20.10;99.90
12321;DHT22;6225;52.720;8.276;2023-08-06T12:30:23;20.10;99.90
12321;DHT22;6225;52.720;8.276;2023-08-06T12:33:07;20.10;99.90
12321;DHT22;6225;52.720;8.276;2023-08-06T12:35:52;20.20;99.90
12321;DHT22;6225;52.720;8.276;2023-08-06T12:38:41;20.10;99.90
12321;DHT22;6225;52.720;8.276;2023-08-06T12:41:25;20.10;99.90
12321;DHT22;6225;52.720;8.276;2023-08-06T12:44:12;20.20;99.90
12321;DHT22;6225;52.720;8.276;2023-08-06T12:46:58;20.30;99.90
12321;DHT22;6225;52.720;8.276;2023-08-06T12:49:43;20.30;99.90
12321;DHT22;6225;52.720;8.276;2023-08-06T12:52:27;20.30;99.90
12321;DHT22;6225;52.720;8.276;2023-08-06T12:55:11;20.30;99.90
12321;DHT22;6225;52.720;8.276;2023-08-06T12:57:55;20.40;99.90
12321;DHT22;6225;52.720;8.276;2023-08-06T13:00:39;20.40;99.90
12321;DHT22;6225;52.720;8.276;2023-08-06T13:03:23;20.50;99.90
12321;DHT22;6225;52.720;8.276;2023-08-06T13:06:07;20.50;99.90
12321;DHT22;6225;52.720;8.276;2023-08-06T13:08:53;20.50;99.90
12321;DHT22;6225;52.720;8.276;2023-08-06T13:11:37;20.40;99.90
12321;DHT22;6225;52.720;8.276;2023-08-06T13:14:22;20.50;99.90
12321;DHT22;6225;52.720;8.276;2023-08-06T13:17:06;20.50;99.90
12321;DHT22;6225;52.720;8.276;2023-08-06T13:19:51;20.50;99.90
12321;DHT22;6225;52.720;8.276;2023-08-06T13:22:35;20.40;99.90
12321;DHT22;6225;52.720;8.276;2023-08-06T13:25:19;20.50;99.90
12321;DHT22;6225;52.720;8.276;2023-08-06T13:28:03;20.60;99.90
12321;DHT22;6225;52.720;8.276;2023-08-06T13:30:48;20.70;99.90
12321;DHT22;6225;52.720;8.276;2023-08-06T13:33:32;20.70;99.90
12321;DHT22;6225;52.720;8.276;2023-08-06T13:36:17;20.70;99.90
12321;DHT22;6225;52.720;8.276;2023-08-06T13:39:01;20.70;99.90
12321;DHT22;6225;52.720;8.276;2023-08-06T13:41:47;21.60;99.90
12321;DHT22;6225;52.720;8.276;2023-08-06T13:44:31;20.80;99.90
12321;DHT22;6225;52.720;8.276;2023-08-06T13:47:19;20.80;99.90
12321;DHT22;6225;52.720;8.276;2023-08-06T13:50:04;20.80;99.90
12321;DHT22;6225;52.720;8.276;2023-08-06T13:52:48;20.80;99.90
12321;DHT22;6225;52.720;8.276;2023-08-06T13:55:32;20.80;99.90
12321;DHT22;6225;52.720;8.276;2023-08-06T13:58:16;20.90;99.90
12321;DHT22;6225;52.720;8.276;2023-08-06T14:01:01;21.00;99.90
12321;DHT22;6225;52.720;8.276;2023-08-06T14:03:45;21.00;99.90
12321;DHT22;6225;52.720;8.276;2023-08-06T14:06:29;21.00;99.90
12321;DHT22;6225;52.720;8.276;2023-08-06T14:09:14;20.90;99.90
12321;DHT22;6225;52.720;8.276;2023-08-06T14:12:02;21.00;99.90
12321;DHT22;6225;52.720;8.276;2023-08-06T14:14:47;21.00;99.90
12321;DHT22;6225;52.720;8.276;2023-08-06T14:17:31;21.10;99.90
12321;DHT22;6225;52.720;8.276;2023-08-06T14:20:15;21.20;99.90
12321;DHT22;6225;52.720;8.276;2023-08-06T14:22:59;21.20;99.90
12321;DHT22;6225;52.720;8.276;2023-08-06T14:25:44;21.20;99.90
12321;DHT22;6225;52.720;8.276;2023-08-06T14:28:28;21.30;99.90
12321;DHT22;6225;52.720;8.276;2023-08-06T14:31:12;21.40;99.90
12321;DHT22;6225;52.720;8.276;2023-08-06T14:33:56;21.40;99.90
12321;DHT22;6225;52.720;8.276;2023-08-06T14:36:40;21.40;99.90
12321;DHT22;6225;52.720;8.276;2023-08-06T14:39:24;21.30;99.90
12321;DHT22;6225;52.720;8.276;2023-08-06T14:42:08;21.20;99.90
12321;DHT22;6225;52.720;8.276;2023-08-06T14:44:53;21.20;99.90
12321;DHT22;6225;52.720;8.276;2023-08-06T14:47:37;21.20;99.90
12321;DHT22;6225;52.720;8.276;2023-08-06T14:50:21;21.20;99.90
12321;DHT22;6225;52.720;8.276;2023-08-06T14:53:05;21.10;99.90
12321;DHT22;6225;52.720;8.276;2023-08-06T14:55:49;21.10;99.90
12321;DHT22;6225;52.720;8.276;2023-08-06T14:58:34;21.10;99.90
12321;DHT22;6225;52.720;8.276;2023-08-06T15:01:18;21.00;99.90
12321;DHT22;6225;52.720;8.276;2023-08-06T15:04:02;21.10;99.90
12321;DHT22;6225;52.720;8.276;2023-08-06T15:06:46;21.10;99.90
12321;DHT22;6225;52.720;8.276;2023-08-06T15:09:30;21.20;99.90
12321;DHT22;6225;52.720;8.276;2023-08-06T15:12:14;21.20;99.90
12321;DHT22;6225;52.720;8.276;2023-08-06T15:14:59;21.30;99.90
12321;DHT22;6225;52.720;8.276;2023-08-06T15:17:45;21.40;99.90
12321;DHT22;6225;52.720;8.276;2023-08-06T15:20:29;21.40;99.90
12321;DHT22;6225;52.720;8.276;2023-08-06T15:23:14;21.30;99.90
12321;DHT22;6225;52.720;8.276;2023-08-06T15:25:58;21.30;99.90
12321;DHT22;6225;52.720;8.276;2023-08-06T15:28:42;21.40;99.90
12321;DHT22;6225;52.720;8.276;2023-08-06T15:31:38;21.40;99.90
12321;DHT22;6225;52.720;8.276;2023-08-06T15:34:22;21.40;99.90
12321;DHT22;6225;52.720;8.276;2023-08-06T15:37:06;21.30;99.90
12321;DHT22;6225;52.720;8.276;2023-08-06T15:39:52;21.30;99.90
12321;DHT22;6225;52.720;8.276;2023-08-06T15:42:36;21.40;99.90
12321;DHT22;6225;52.720;8.276;2023-08-06T15:45:20;21.40;99.90
12321;DHT22;6225;52.720;8.276;2023-08-06T15:48:04;21.40;99.90
12321;DHT22;6225;52.720;8.276;2023-08-06T15:50:49;21.40;99.90
12321;DHT22;6225;52.720;8.276;2023-08-06T15:53:33;21.30;99.90
12321;DHT22;6225;52.720;8.276;2023-08-06T15:56:17;21.30;99.90
12321;DHT22;6225;52.720;8.276;2023-08-06T15:59:27;21.20;99.90
12321;DHT22;6225;52.720;8.276;2023-08-06T16:02:12;21.20;99.90
12321;DHT22;6225;52.720;8.276;2023-08-06T16:04:59;21.20;99.90
12321;DHT22;6225;52.720;8.276;2023-08-06T16:07:43;21.10;99.90
12321;DHT22;6225;52.720;8.276;2023-08-06T16:10:27;21.10;99.90
12321;DHT22;6225;52.720;8.276;2023-08-06T16:13:11;21.00;99.90
12321;DHT22;6225;52.720;8.276;2023-08-06T16:15:55;20.90;99.90
12321;DHT22;6225;52.720;8.276;2023-08-06T16:18:39;20.90;99.90
12321;DHT22;6225;52.720;8.276;2023-08-06T16:21:23;20.90;99.90
12321;DHT22;6225;52.720;8.276;2023-08-06T16:24:08;20.90;99.90
12321;DHT22;6225;52.720;8.276;2023-08-06T16:26:53;20.90;99.90
12321;DHT22;6225;52.720;8.276;2023-08-06T16:29:37;20.80;99.90
12321;DHT22;6225;52.720;8.276;2023-08-06T16:32:21;20.80;99.90
12321;DHT22;6225;52.720;8.276;2023-08-06T16:35:07;20.70;99.90
12321;DHT22;6225;52.720;8.276;2023-08-06T16:37:53;20.70;99.90
12321;DHT22;6225;52.720;8.276;2023-08-06T16:40:37;20.70;99.90
12321;DHT22;6225;52.720;8.276;2023-08-06T16:43:22;20.70;99.90
12321;DHT22;6225;52.720;8.276;2023-08-06T16:46:06;20.70;99.90
12321;DHT22;6225;52.720;8.276;2023-08-06T16:48:51;20.70;99.90
12321;DHT22;6225;52.720;8.276;2023-08-06T16:51:35;20.60;99.90
12321;DHT22;6225;52.720;8.276;2023-08-06T16:54:19;20.60;99.90
12321;DHT22;6225;52.720;8.276;2023-08-06T16:57:03;20.50;99.90
12321;DHT22;6225;52.720;8.276;2023-08-06T16:59:48;20.50;99.90
12321;DHT22;6225;52.720;8.276;2023-08-06T17:02:31;20.50;99.90
12321;DHT22;6225;52.720;8.276;2023-08-06T17:05:16;20.50;99.90
12321;DHT22;6225;52.720;8.276;2023-08-06T17:08:00;20.50;99.90
12321;DHT22;6225;52.720;8.276;2023-08-06T17:10:44;20.50;99.90
12321;DHT22;6225;52.720;8.276;2023-08-06T17:13:29;20.50;99.90
12321;DHT22;6225;52.720;8.276;2023-08-06T17:16:13;20.50;99.90
12321;DHT22;6225;52.720;8.276;2023-08-06T17:18:57;20.50;99.90
12321;DHT22;6225;52.720;8.276;2023-08-06T17:21:41;20.50;99.90
12321;DHT22;6225;52.720;8.276;2023-08-06T17:24:26;20.50;99.90
12321;DHT22;6225;52.720;8.276;2023-08-06T17:27:10;20.50;99.90
12321;DHT22;6225;52.720;8.276;2023-08-06T17:29:54;20.60;99.90
12321;DHT22;6225;52.720;8.276;2023-08-06T17:32:38;20.60;99.90
12321;DHT22;6225;52.720;8.276;2023-08-06T17:35:23;20.60;99.90
12321;DHT22;6225;52.720;8.276;2023-08-06T17:38:08;20.60;99.90
12321;DHT22;6225;52.720;8.276;2023-08-06T17:40:53;20.60;99.90
12321;DHT22;6225;52.720;8.276;2023-08-06T17:43:38;20.50;99.90
12321;DHT22;6225;52.720;8.276;2023-08-06T17:46:22;20.50;99.90
12321;DHT22;6225;52.720;8.276;2023-08-06T17:49:06;20.40;99.90
12321;DHT22;6225;52.720;8.276;2023-08-06T17:51:50;20.50;99.90
12321;DHT22;6225;52.720;8.276;2023-08-06T17:54:34;20.30;99.90
12321;DHT22;6225;52.720;8.276;2023-08-06T17:57:18;20.30;99.90
12321;DHT22;6225;52.720;8.276;2023-08-06T18:00:03;20.30;99.90
12321;DHT22;6225;52.720;8.276;2023-08-06T18:02:47;20.20;99.90
12321;DHT22;6225;52.720;8.276;2023-08-06T18:05:31;20.20;99.90
12321;DHT22;6225;52.720;8.276;2023-08-06T18:08:16;20.10;99.90
12321;DHT22;6225;52.720;8.276;2023-08-06T18:11:00;20.10;99.90
12321;DHT22;6225;52.720;8.276;2023-08-06T18:13:45;20.10;99.90
12321;DHT22;6225;52.720;8.276;2023-08-06T18:16:29;20.10;99.90
12321;DHT22;6225;52.720;8.276;2023-08-06T18:19:13;20.00;99.90
12321;DHT22;6225;52.720;8.276;2023-08-06T18:21:59;20.00;99.90
12321;DHT22;6225;52.720;8.276;2023-08-06T18:24:47;20.00;99.90
12321;DHT22;6225;52.720;8.276;2023-08-06T18:27:32;19.90;99.90
12321;DHT22;6225;52.720;8.276;2023-08-06T18:30:17;19.90;99.90
12321;DHT22;6225;52.720;8.276;2023-08-06T18:33:05;19.80;99.90
12321;DHT22;6225;52.720;8.276;2023-08-06T18:35:50;19.70;99.90
12321;DHT22;6225;52.720;8.276;2023-08-06T18:38:35;19.70;99.90
12321;DHT22;6225;52.720;8.276;2023-08-06T18:41:19;19.70;99.90
12321;DHT22;6225;52.720;8.276;2023-08-06T18:44:03;19.60;99.90
12321;DHT22;6225;52.720;8.276;2023-08-06T18:46:48;19.60;99.90
12321;DHT22;6225;52.720;8.276;2023-08-06T18:49:33;19.50;99.90
12321;DHT22;6225;52.720;8.276;2023-08-06T18:52:17;19.60;99.90
12321;DHT22;6225;52.720;8.276;2023-08-06T18:55:01;19.50;99.90
12321;DHT22;6225;52.720;8.276;2023-08-06T18:57:48;19.40;99.90
12321;DHT22;6225;52.720;8.276;2023-08-06T19:00:38;19.40;99.90
12321;DHT22;6225;52.720;8.276;2023-08-06T19:03:23;19.30;99.90
12321;DHT22;6225;52.720;8.276;2023-08-06T19:06:17;19.20;99.90
12321;DHT22;6225;52.720;8.276;2023-08-06T19:09:07;19.20;99.90
12321;DHT22;6225;52.720;8.276;2023-08-06T19:11:52;19.10;99.90
12321;DHT22;6225;52.720;8.276;2023-08-06T19:14:36;19.10;99.90
12321;DHT22;6225;52.720;8.276;2023-08-06T19:17:27;19.00;99.90
12321;DHT22;6225;52.720;8.276;2023-08-06T19:20:18;18.90;99.90
12321;DHT22;6225;52.720;8.276;2023-08-06T19:23:12;18.80;99.90
12321;DHT22;6225;52.720;8.276;2023-08-06T19:26:07;18.70;99.90
12321;DHT22;6225;52.720;8.276;2023-08-06T19:29:14;18.60;99.90
12321;DHT22;6225;52.720;8.276;2023-08-06T19:32:02;18.60;99.90
12321;DHT22;6225;52.720;8.276;2023-08-06T19:34:51;18.50;99.90
12321;DHT22;6225;52.720;8.276;2023-08-06T19:37:49;18.50;99.90
12321;DHT22;6225;52.720;8.276;2023-08-06T19:40:39;18.40;99.90
12321;DHT22;6225;52.720;8.276;2023-08-06T19:43:24;18.30;99.90
12321;DHT22;6225;52.720;8.276;2023-08-06T19:46:08;18.30;99.90